createdAt,value
2024-03-26T00:04:17.854Z,1.81
2024-03-26T00:09:20.863Z,1.67
2024-03-26T00:14:23.661Z,1.55
2024-03-26T00:19:26.458Z,1.43
2024-03-26T00:24:29.573Z,1.33
2024-03-26T00:29:32.574Z,1.21
2024-03-26T00:34:35.785Z,1.10
2024-03-26T00:39:38.792Z,0.99
2024-03-26T00:44:41.624Z,0.89
2024-03-26T00:49:44.500Z,0.80
2024-03-26T00:54:47.816Z,0.72
2024-03-26T00:59:50.823Z,0.67
2024-03-26T01:04:54.029Z,0.59
2024-03-26T01:09:56.934Z,0.53
2024-03-26T01:14:59.844Z,0.55
2024-03-26T01:20:02.742Z,0.48
2024-03-26T01:25:08.550Z,0.38
2024-03-26T01:30:11.942Z,0.29
2024-03-26T01:35:15.164Z,0.22
2024-03-26T01:40:18.263Z,0.14
2024-03-26T01:45:21.159Z,0.12
2024-03-26T01:50:24.183Z,0.23
2024-03-26T01:55:27.686Z,0.35
2024-03-26T02:00:31.768Z,0.49
2024-03-26T02:05:34.622Z,0.63
2024-03-26T02:10:37.523Z,0.78
2024-03-26T02:15:41.255Z,0.90
2024-03-26T02:20:45.724Z,0.98
2024-03-26T02:25:49.417Z,0.98
2024-03-26T02:30:52.331Z,0.95
2024-03-26T02:35:55.226Z,0.99
2024-03-26T02:40:58.123Z,1.03
2024-03-26T02:46:00.926Z,1.08
2024-03-26T02:51:04.246Z,1.11
2024-03-26T02:56:07.253Z,1.12
2024-03-26T03:01:12.000Z,1.16
2024-03-26T03:06:14.892Z,1.21
2024-03-26T03:11:17.702Z,1.26
2024-03-26T03:16:20.603Z,1.31
2024-03-26T03:21:23.506Z,1.36
2024-03-26T03:26:26.410Z,1.41
2024-03-26T03:31:30.955Z,1.46
2024-03-26T03:36:33.961Z,1.48
2024-03-26T03:41:36.763Z,1.50
2024-03-26T03:46:39.661Z,1.53
2024-03-26T03:51:42.568Z,1.55
2024-03-26T03:56:45.490Z,1.59
2024-03-26T04:01:49.043Z,1.60
2024-03-26T04:06:51.899Z,1.61
2024-03-26T04:11:55.442Z,1.60
2024-03-26T04:17:01.013Z,1.62
2024-03-26T04:22:03.987Z,1.62
2024-03-26T04:27:06.908Z,1.58
2024-03-26T04:32:09.895Z,1.54
2024-03-26T04:37:12.906Z,1.50
2024-03-26T04:42:15.714Z,1.49
2024-03-26T04:47:18.931Z,1.50
2024-03-26T04:52:21.928Z,1.50
2024-03-26T04:57:24.833Z,1.49
2024-03-26T05:02:27.840Z,1.47
2024-03-26T05:07:30.747Z,1.43
2024-03-26T05:12:33.644Z,1.44
2024-03-26T05:17:36.551Z,1.42
2024-03-26T05:22:39.663Z,1.51
2024-03-26T05:27:42.665Z,1.69
2024-03-26T05:32:45.564Z,1.84
2024-03-26T05:37:50.120Z,2.18
2024-03-26T05:42:53.015Z,2.74
2024-03-26T05:47:55.957Z,3.29
2024-03-26T05:53:00.352Z,4.43
2024-03-26T05:58:03.674Z,5.65
2024-03-26T06:03:06.998Z,7.04
2024-03-26T06:08:09.997Z,8.77
2024-03-26T06:13:13.036Z,10.40
2024-03-26T06:18:16.540Z,11.40
2024-03-26T06:23:19.531Z,12.23
2024-03-26T06:28:23.045Z,12.44
2024-03-26T06:33:26.719Z,12.96
2024-03-26T06:38:30.701Z,13.68
2024-03-26T06:43:33.702Z,14.42
2024-03-26T06:48:36.611Z,15.19
2024-03-26T06:53:39.518Z,15.67
2024-03-26T06:58:46.418Z,15.86
2024-03-26T07:03:49.320Z,16.13
2024-03-26T07:08:52.544Z,16.43
2024-03-26T07:13:55.433Z,16.73
2024-03-26T07:18:58.336Z,17.25
2024-03-26T07:24:01.253Z,17.54
2024-03-26T07:29:04.155Z,17.47
2024-03-26T07:34:07.063Z,17.39
2024-03-26T07:39:16.722Z,17.22
2024-03-26T07:44:19.772Z,17.28
2024-03-26T07:49:22.725Z,17.44
2024-03-26T07:54:25.631Z,17.41
2024-03-26T07:59:28.746Z,17.68
2024-03-26T08:04:31.651Z,17.86
2024-03-26T08:09:34.764Z,17.74
2024-03-26T08:14:40.709Z,17.77
2024-03-26T08:19:43.736Z,17.71
2024-03-26T08:24:46.514Z,17.59
2024-03-26T08:29:49.544Z,17.56
2024-03-26T08:34:52.446Z,17.29
2024-03-26T08:39:57.090Z,16.76
2024-03-26T08:45:00.288Z,15.82
2024-03-26T08:50:03.925Z,14.55
2024-03-26T08:55:07.403Z,13.70
2024-03-26T09:00:12.046Z,13.06
2024-03-26T09:05:14.997Z,12.56
2024-03-26T09:10:17.910Z,12.39
2024-03-26T09:15:20.821Z,12.35
2024-03-26T09:20:23.705Z,12.26
2024-03-26T09:25:26.692Z,12.06
2024-03-26T09:30:29.720Z,11.97
2024-03-26T09:35:32.626Z,12.07
2024-03-26T09:40:36.042Z,12.20
2024-03-26T09:45:38.948Z,12.09
2024-03-26T09:50:43.521Z,12.25
2024-03-26T09:55:47.519Z,12.42
2024-03-26T10:00:51.346Z,12.51
2024-03-26T10:05:55.002Z,12.58
2024-03-26T10:10:57.969Z,12.77
2024-03-26T10:16:01.561Z,13.03
2024-03-26T10:21:09.113Z,13.12
2024-03-26T10:26:12.108Z,13.05
2024-03-26T10:31:15.235Z,13.15
2024-03-26T10:36:18.424Z,13.41
2024-03-26T10:41:51.234Z,13.43
2024-03-26T10:46:55.169Z,13.49
2024-03-26T10:52:01.253Z,13.53
2024-03-26T10:57:05.250Z,13.47
2024-03-26T11:02:09.922Z,13.39
2024-03-26T11:07:14.841Z,13.46
2024-03-26T11:12:22.311Z,13.70
2024-03-26T11:17:25.793Z,13.90
2024-03-26T11:22:28.652Z,13.88
2024-03-26T11:27:32.231Z,13.84
2024-03-26T11:32:35.229Z,13.78
2024-03-26T11:37:40.518Z,13.77
2024-03-26T11:42:45.800Z,13.93
2024-03-26T11:47:48.952Z,14.25
2024-03-26T11:52:51.865Z,14.53
2024-03-26T11:57:55.179Z,14.72
2024-03-26T12:02:58.177Z,14.59
2024-03-26T12:08:01.186Z,14.36
2024-03-26T12:13:05.646Z,14.23
2024-03-26T12:18:08.539Z,14.22
2024-03-26T12:23:11.538Z,14.23
2024-03-26T12:28:14.663Z,14.15
2024-03-26T12:33:19.502Z,14.07
2024-03-26T12:38:22.810Z,14.00
2024-03-26T12:43:25.815Z,13.78
2024-03-26T12:48:29.489Z,13.63
2024-03-26T12:53:32.448Z,13.40
2024-03-26T12:58:35.558Z,13.26
2024-03-26T13:03:38.642Z,13.21
2024-03-26T13:08:41.669Z,13.22
2024-03-26T13:13:46.597Z,13.16
2024-03-26T13:18:49.530Z,13.09
2024-03-26T13:23:52.537Z,13.09
2024-03-26T13:28:55.441Z,13.22
2024-03-26T13:33:58.444Z,13.30
2024-03-26T13:39:01.663Z,13.39
2024-03-26T13:44:04.860Z,13.64
2024-03-26T13:49:16.388Z,13.91
2024-03-26T13:54:19.574Z,13.94
2024-03-26T13:59:22.482Z,13.72
2024-03-26T14:04:25.394Z,13.55
2024-03-26T14:09:29.012Z,13.34
2024-03-26T14:14:31.924Z,13.29
2024-03-26T14:19:34.925Z,13.19
2024-03-26T14:24:37.831Z,13.05
2024-03-26T14:29:40.810Z,12.86
2024-03-26T14:34:43.742Z,12.90
2024-03-26T14:39:46.645Z,12.82
2024-03-26T14:44:49.767Z,12.68
2024-03-26T14:49:52.761Z,12.60
2024-03-26T14:54:55.978Z,12.41
2024-03-26T14:59:59.080Z,12.29
2024-03-26T15:05:05.639Z,12.23
2024-03-26T15:10:08.881Z,12.11
2024-03-26T15:15:11.945Z,12.11
2024-03-26T15:20:18.181Z,12.16
2024-03-26T15:25:23.744Z,12.22
2024-03-26T15:30:45.684Z,12.15
2024-03-26T15:35:48.492Z,12.02
2024-03-26T15:40:51.401Z,11.88
2024-03-26T15:45:54.403Z,11.86
2024-03-26T15:50:57.405Z,11.83
2024-03-26T15:56:00.334Z,11.73
2024-03-26T16:01:03.419Z,11.61
2024-03-26T16:06:07.423Z,11.54
2024-03-26T16:11:13.854Z,11.49
2024-03-26T16:16:17.258Z,11.38
2024-03-26T16:21:20.416Z,11.31
2024-03-26T16:26:23.371Z,11.15
2024-03-26T16:31:26.279Z,10.98
2024-03-26T16:36:29.381Z,10.82
2024-03-26T16:41:35.310Z,10.70
2024-03-26T16:46:39.767Z,10.56
2024-03-26T16:51:43.866Z,10.43
2024-03-26T16:56:46.840Z,10.31
2024-03-26T17:01:50.048Z,10.21
2024-03-26T17:06:52.959Z,10.10
2024-03-26T17:11:55.850Z,9.97
2024-03-26T17:17:09.642Z,9.86
2024-03-26T17:22:17.549Z,9.80
2024-03-26T17:27:20.646Z,9.70
2024-03-26T17:32:23.885Z,9.64
2024-03-26T17:37:26.815Z,9.55
2024-03-26T17:42:33.556Z,9.47
2024-03-26T17:47:36.772Z,9.37
2024-03-26T17:52:40.085Z,9.26
2024-03-26T17:57:43.088Z,9.17
2024-03-26T18:02:49.636Z,9.12
2024-03-26T18:07:52.592Z,9.07
2024-03-26T18:12:55.487Z,9.02
2024-03-26T18:17:58.412Z,8.98
2024-03-26T18:23:01.395Z,8.99
2024-03-26T18:28:05.017Z,9.02
2024-03-26T18:33:07.923Z,9.04
2024-03-26T18:38:10.832Z,9.04
2024-03-26T18:43:13.835Z,9.09
2024-03-26T18:48:17.088Z,9.08
2024-03-26T18:53:20.062Z,9.02
2024-03-26T18:58:22.970Z,9.00
2024-03-26T19:03:26.477Z,9.00
2024-03-26T19:08:29.526Z,9.01
2024-03-26T19:13:35.666Z,9.02
2024-03-26T19:18:38.789Z,8.97
2024-03-26T19:23:41.882Z,8.94
2024-03-26T19:28:44.786Z,8.93
2024-03-26T19:33:49.131Z,8.90
2024-03-26T19:38:53.255Z,8.89
2024-03-26T19:43:56.507Z,8.85
2024-03-26T19:48:59.788Z,8.86
2024-03-26T19:54:02.958Z,8.84
2024-03-26T19:59:05.898Z,8.80
2024-03-26T20:04:09.355Z,8.80
2024-03-26T20:09:12.536Z,8.84
2024-03-26T20:14:15.745Z,8.82
2024-03-26T20:19:18.716Z,8.78
2024-03-26T20:24:22.282Z,8.80
2024-03-26T20:29:25.291Z,8.86
2024-03-26T20:34:31.144Z,8.88
2024-03-26T20:39:34.156Z,8.87
2024-03-26T20:44:37.485Z,8.91
2024-03-26T20:49:40.888Z,8.91
2024-03-26T20:54:44.101Z,8.93
2024-03-26T20:59:47.500Z,8.88
2024-03-26T21:04:50.820Z,8.86
2024-03-26T21:09:53.966Z,8.85
2024-03-26T21:14:57.044Z,8.80
2024-03-26T21:20:01.892Z,8.74
2024-03-26T21:25:06.775Z,8.65
2024-03-26T21:30:10.503Z,8.62
2024-03-26T21:35:13.784Z,8.52
2024-03-26T21:40:17.207Z,8.46
2024-03-26T21:45:20.099Z,8.38
2024-03-26T21:50:23.112Z,8.33
2024-03-26T21:55:26.108Z,8.30
2024-03-26T22:00:29.059Z,8.24
2024-03-26T22:05:32.941Z,8.20
2024-03-26T22:10:38.611Z,8.18
2024-03-26T22:15:42.917Z,8.17
2024-03-26T22:20:55.796Z,8.18
2024-03-26T22:26:02.096Z,8.14
2024-03-26T22:31:06.750Z,8.14
2024-03-26T22:36:10.185Z,8.12
2024-03-26T22:41:13.032Z,8.08
2024-03-26T22:46:15.934Z,8.04
2024-03-26T22:51:18.738Z,8.02
2024-03-26T22:56:21.964Z,8.00
2024-03-26T23:01:24.916Z,7.92
2024-03-26T23:06:27.970Z,7.92
2024-03-26T23:11:31.195Z,7.94
2024-03-26T23:16:34.080Z,7.95
2024-03-26T23:21:37.097Z,7.90
2024-03-26T23:26:40.200Z,7.85
2024-03-26T23:31:43.204Z,7.84
2024-03-26T23:36:46.103Z,7.83
2024-03-26T23:41:49.217Z,7.83
2024-03-26T23:46:52.117Z,7.77
2024-03-26T23:51:55.024Z,7.78
2024-03-26T23:56:57.827Z,7.75
